Farrar, Iowa
Current Conditions -  °F | °C
As of 4:35 PM on Thursday 20 Nov 2014 (Local Time) from KIKV Reporting Station
Clear Clear  
Wind Chill: -9°   Ceiling: Unl
Heat Index: -4°   Visibility: 10mi
Dew Point: -12°   Wind: 9mph
Humidity: 54%   Direction: 320°NW
Pressure: 30.23"   Gusts: NA
Location:  41.8542°N, 93.4051°W
Report Text: KIKV 202235Z AUTO 32008KT 10SM CLR M04/M12 A3023 RMK AO2
Loading
Personal Weather Stations






























Interactive Weather Map New forecast layout! Learn more

10-Day Weather Forecast

Advertisements
Track Severe Weather on mobile